Flight Track Log - Related Links

Times and Time Zones

All times are in EDT time to prevent confusion due to time zone crossing. See the WJA951 flight status page for this flight to view local times or setup timezone preferences in your user account.


Time Position Orientation Groundspeed Altitude Reporting Facility
EDT Latitude Longitude Course Direction KTS MPH feet Rate Location/Type
Sun 08:01:32 AM 49.8500 -97.2500 295° West 160 184 3,600  Level Winnipeg Center
Sun 08:02:32 AM 49.8000 -97.2333 168° South 210 242 6,800 2,900 Climbing Winnipeg Center
Sun 08:03:32 AM 49.8000 -97.3333 270° West 240 276 9,400 2,700 Climbing Winnipeg Center
Sun 08:04:00 AM 50.0396 -97.8458 289° West  Level FlightAware Approximate
Sun 08:04:32 AM 49.8167 -97.4333 285° West 300 345 12,200  Level Winnipeg Center
Sun 08:05:00 AM 50.0729 -98.0011 289° West  Level FlightAware Approximate
Sun 08:05:32 AM 49.8667 -97.5667 300° West 320 368 16,300  Level Winnipeg Center
Sun 08:06:00 AM 50.1160 -98.1429 295° West  Level FlightAware Approximate
Sun 08:06:32 AM 49.9000 -97.7000 291° West 330 380 20,100  Level Winnipeg Center
Sun 08:07:00 AM 50.1590 -98.2849 295° West  Level FlightAware Approximate
Sun 08:07:32 AM 49.9333 -97.8167 294° West 330 380 23,400  Level Winnipeg Center
Sun 08:08:32 AM 49.9667 -97.9500 291° West 330 380 26,600 3,450 Climbing Winnipeg Center
Sun 08:09:32 AM 49.9833 -98.0833 281° West 330 380 30,300 2,250 Climbing Winnipeg Center
Sun 08:10:32 AM 50.0333 -98.2500 295° West 350 403 31,100 850 Climbing Winnipeg Center
Sun 08:11:32 AM 50.0833 -98.3667 304° West 370 426 32,000 450 Climbing Winnipeg Center
Sun 08:12:32 AM 50.1167 -98.5333 287° West 350 403 32,000  Level Winnipeg Center
Sun 08:13:32 AM 50.1667 -98.6667 300° West 350 403 32,000  Level Winnipeg Center
Sun 08:14:32 AM 50.2000 -98.8000 291° West 370 426 32,000  Level Winnipeg Center
Sun 08:15:32 AM 50.2500 -98.9500 298° West 360 414 32,000  Level Winnipeg Center
Sun 08:16:32 AM 50.2833 -99.0833 291° West 360 414 32,000  Level Winnipeg Center
Sun 08:17:32 AM 50.3333 -99.2500 295° West 360 414 32,000  Level Winnipeg Center
Sun 08:18:32 AM 50.3667 -99.3833 291° West 360 414 32,000  Level Winnipeg Center
Sun 08:19:32 AM 50.4000 -99.5167 291° West 360 414 32,000  Level Winnipeg Center
Sun 08:20:32 AM 50.4500 -99.6667 298° West 360 414 32,000  Level Winnipeg Center
Sun 08:21:32 AM 50.4833 -99.8000 291° West 360 414 32,000  Level Winnipeg Center
Sun 08:22:32 AM 50.5333 -99.9667 295° West 360 414 32,000  Level Winnipeg Center
Sun 08:23:32 AM 50.5500 -100.1000 281° West 360 414 32,000  Level Winnipeg Center
Sun 08:24:32 AM 50.6000 -100.2333 301° West 360 414 32,000  Level Winnipeg Center
Sun 08:25:32 AM 50.6500 -100.4000 295° West 350 403 32,000  Level Winnipeg Center
Sun 08:26:32 AM 50.6833 -100.5333 292° West 350 403 32,000  Level Winnipeg Center
Sun 08:27:32 AM 50.7000 -100.6667 281° West 340 391 32,000  Level Winnipeg Center
Sun 08:29:32 AM 50.7833 -100.9667 299° West 330 380 32,000  Level Winnipeg Center
Sun 08:30:32 AM 50.8167 -101.0667 298° West 330 380 32,000  Level Winnipeg Center
Sun 08:31:33 AM 50.8500 -101.2167 289° West 330 380 32,000  Level Winnipeg Center
Sun 08:32:32 AM 50.8833 -101.3500 292° West 320 368 32,000  Level Winnipeg Center
Sun 08:33:32 AM 50.9167 -101.4833 292° West 320 368 32,000  Level Winnipeg Center
Sun 08:34:32 AM 50.9500 -101.6167 292° West 320 368 32,000  Level Winnipeg Center
Sun 08:35:32 AM 50.9833 -101.7500 292° West 320 368 32,000  Level Winnipeg Center
Sun 08:36:33 AM 51.0167 -101.8667 294° West 320 368 32,000  Level Winnipeg Center
Sun 08:37:32 AM 51.0667 -102.0000 301° West 320 368 32,000  Level Winnipeg Center
Sun 08:38:32 AM 51.0833 -102.1333 281° West 310 357 32,000  Level Winnipeg Center
Sun 08:39:32 AM 51.1167 -102.2667 292° West 320 368 32,000  Level Winnipeg Center
Sun 08:40:32 AM 51.1500 -102.3833 295° West 310 357 32,000  Level Winnipeg Center
Sun 08:41:32 AM 51.1667 -102.5167 281° West 310 357 32,000  Level Winnipeg Center
Sun 08:42:32 AM 51.2167 -102.6667 298° West 310 357 32,000  Level Winnipeg Center
Sun 08:43:32 AM 51.2333 -102.7667 285° West 310 357 32,000  Level Winnipeg Center
Sun 08:44:32 AM 51.2667 -102.9167 290° West 310 357 32,000  Level Winnipeg Center
Sun 08:45:33 AM 51.3000 -103.0500 292° West 310 357 32,000  Level Winnipeg Center
Sun 08:46:32 AM 51.3333 -103.1667 295° West 300 345 32,000  Level Winnipeg Center
Sun 08:47:32 AM 51.3667 -103.3000 292° West 310 357 32,000  Level Winnipeg Center
Sun 08:48:32 AM 51.3833 -103.4333 281° West 310 357 32,000  Level Winnipeg Center
Sun 08:49:32 AM 51.4167 -103.5500 295° West 320 368 32,000  Level Winnipeg Center
Sun 08:50:33 AM 51.4500 -103.6833 292° West 320 368 32,000  Level Winnipeg Center
Sun 08:51:32 AM 51.4833 -103.8333 290° West 310 357 32,000  Level Winnipeg Center
Sun 08:52:32 AM 51.5167 -103.9667 292° West 310 357 32,000  Level Winnipeg Center
Sun 08:53:32 AM 51.5333 -104.1000 281° West 310 357 32,000  Level Winnipeg Center
Sun 08:54:32 AM 51.5667 -104.2167 295° West 310 357 32,000  Level Winnipeg Center
Sun 08:55:32 AM 51.6000 -104.3667 290° West 310 357 32,000  Level Winnipeg Center
Sun 08:56:32 AM 51.6333 -104.5000 292° West 310 357 32,000  Level Winnipeg Center
Sun 08:57:32 AM 51.6500 -104.6167 283° West 310 357 32,000  Level Winnipeg Center
Sun 08:58:32 AM 51.6833 -104.7500 292° West 320 368 32,000  Level Winnipeg Center
Sun 08:59:32 AM 51.7000 -104.8833 281° West 320 368 32,000  Level Winnipeg Center
Sun 09:00:32 AM 51.7500 -105.0333 298° West 320 368 32,000  Level Winnipeg Center
Sun 09:01:33 AM 51.7667 -105.1500 283° West 310 357 32,000  Level Winnipeg Center
Sun 09:02:32 AM 51.8000 -105.2833 292° West 320 368 32,000  Level Winnipeg Center
Sun 09:03:32 AM 51.8333 -105.4333 290° West 310 357 32,000  Level Winnipeg Center
Sun 09:04:32 AM 51.8500 -105.5667 281° West 310 357 32,000  Level Winnipeg Center
Sun 09:05:32 AM 51.8833 -105.6833 295° West 320 368 32,000  Level Winnipeg Center
Sun 09:06:33 AM 51.9000 -105.8333 280° West 320 368 32,000  Level Winnipeg Center
Sun 09:07:32 AM 51.9500 -105.9667 301° West 320 368 32,000  Level Winnipeg Center
Sun 09:08:32 AM 51.9667 -106.1167 280° West 320 368 32,000  Level Winnipeg Center
Sun 09:09:32 AM 52.0000 -106.2333 295° West 310 357 32,000  Level Winnipeg Center
Sun 09:10:32 AM 52.0167 -106.3667 282° West 310 357 32,000  Level Winnipeg Center
Sun 09:11:32 AM 52.0333 -106.5167 280° West 310 357 32,000  Level Winnipeg Center
Sun 09:12:32 AM 52.0833 -106.6333 305° West 310 357 32,000  Level Winnipeg Center
Sun 09:13:32 AM 52.1000 -106.7667 282° West 300 345 32,000  Level Winnipeg Center
Sun 09:14:32 AM 52.1167 -106.8833 283° West 310 357 32,000  Level Winnipeg Center
Sun 09:15:33 AM 52.1500 -107.0333 290° West 310 357 32,000  Level Winnipeg Center
Sun 09:16:32 AM 52.1833 -107.1667 292° West 310 357 32,000  Level Winnipeg Center
Sun 09:17:32 AM 52.2000 -107.3167 280° West 320 368 32,000  Level Winnipeg Center
Sun 09:18:32 AM 52.2333 -107.4500 292° West 320 368 32,000  Level Winnipeg Center
Sun 09:19:32 AM 52.2500 -107.5667 283° West 320 368 32,000  Level Winnipeg Center
Sun 09:20:29 AM 52.2667 -107.7000 282° West 310 357 32,000  Level Edmonton Center
Sun 09:21:29 AM 52.3000 -107.8167 295° West 310 357 32,000  Level Edmonton Center
Sun 09:22:29 AM 52.3167 -107.9500 282° West 310 357 32,000  Level Edmonton Center
Sun 09:23:29 AM 52.3500 -108.0833 292° West 310 357 32,000  Level Edmonton Center
Sun 09:24:29 AM 52.3667 -108.2333 280° West 310 357 32,000  Level Edmonton Center
Sun 09:25:29 AM 52.3833 -108.3667 282° West 310 357 32,000  Level Edmonton Center
Sun 09:26:29 AM 52.4167 -108.4833 295° West 300 345 32,000  Level Edmonton Center
Sun 09:27:29 AM 52.4500 -108.6167 292° West 300 345 32,000  Level Edmonton Center
Sun 09:28:29 AM 52.4667 -108.7667 280° West 310 357 32,000  Level Edmonton Center
Sun 09:29:29 AM 52.4833 -108.9000 282° West 310 357 32,000  Level Edmonton Center
Sun 09:30:29 AM 52.5167 -109.0500 290° West 310 357 32,000  Level Edmonton Center
Sun 09:31:29 AM 52.5500 -109.1833 292° West 310 357 32,000  Level Edmonton Center
Sun 09:32:29 AM 52.5500 -109.3333 270° West 310 357 32,000  Level Edmonton Center
Sun 09:33:29 AM 52.5833 -109.4500 295° West 310 357 32,000  Level Edmonton Center
Sun 09:34:29 AM 52.6167 -109.6167 288° West 310 357 32,000  Level Edmonton Center
Sun 09:35:29 AM 52.6167 -109.7333 270° West 300 345 32,000  Level Edmonton Center
Sun 09:36:29 AM 52.6500 -109.8667 292° West 310 357 32,000 -450 Level Edmonton Center
Sun 09:37:29 AM 52.6833 -110.0167 290° West 300 345 31,100 -900 Descending Edmonton Center
Sun 09:38:29 AM 52.6833 -110.1333 270° West 310 357 30,200 -950 Descending Edmonton Center
Sun 09:39:29 AM 52.7167 -110.2667 292° West 310 357 29,200 -850 Descending Edmonton Center
Sun 09:40:29 AM 52.7333 -110.4333 279° West 320 368 28,500 -700 Descending Edmonton Center
Sun 09:41:29 AM 52.7500 -110.5500 283° West 320 368 27,800 -600 Descending Edmonton Center
Sun 09:42:29 AM 52.7833 -110.7333 287° West 320 368 27,300 -500 Descending Edmonton Center
Sun 09:43:29 AM 52.7833 -110.8667 270° West 320 368 26,800 -500 Descending Edmonton Center
Sun 09:44:29 AM 52.8167 -111.0167 290° West 320 368 26,300 -500 Descending Edmonton Center
Sun 09:45:29 AM 52.8333 -111.1500 282° West 320 368 25,800 -500 Descending Edmonton Center
Sun 09:46:29 AM 52.8500 -111.3000 280° West 320 368 25,300 -500 Descending Edmonton Center
Sun 09:47:29 AM 52.8667 -111.4333 282° West 310 357 24,800 -500 Descending Edmonton Center
Sun 09:48:29 AM 52.8833 -111.5833 280° West 310 357 24,300 -650 Descending Edmonton Center
Sun 09:49:29 AM 52.9167 -111.7333 290° West 320 368 23,500 -900 Descending Edmonton Center
Sun 09:50:29 AM 52.9167 -111.8667 270° West 320 368 22,500 -1,050 Descending Edmonton Center
Sun 09:51:29 AM 52.9500 -112.0500 287° West 340 391 21,400 -1,050 Descending Edmonton Center
Sun 09:52:29 AM 52.9667 -112.1833 282° West 350 403 20,400 -1,550 Descending Edmonton Center
Sun 09:53:29 AM 52.9833 -112.3333 281° West 350 403 18,300 -2,800 Descending Edmonton Center
Sun 09:54:29 AM 53.0000 -112.5000 279° West 340 391 14,800 -2,400 Descending Edmonton Center
Sun 09:55:29 AM 53.0167 -112.6500 281° West 320 368 13,500 -1,550 Descending Edmonton Center
Sun 09:56:29 AM 53.0500 -112.7667 295° West 280 322 11,700 -1,700 Descending Edmonton Center
Sun 09:57:29 AM 53.0667 -112.8833 283° West 280 322 10,100 -1,150 Descending Edmonton Center
Sun 09:58:29 AM 53.0833 -113.0000 283° West 250 288 9,400 -1,250 Descending Edmonton Center
Sun 09:59:29 AM 53.1167 -113.1167 295° West 250 288 7,600 -1,400 Descending Edmonton Center
Sun 10:00:29 AM 53.1167 -113.2333 270° West 230 265 6,600 -800 Descending Edmonton Center
Sun 10:01:29 AM 53.1333 -113.3167 288° West 200 230 6,000 -750 Descending Edmonton Center
Sun 10:02:29 AM 53.1500 -113.4167 286° West 190 219 5,100 -750 Descending Edmonton Center
Sun 10:03:29 AM 53.1833 -113.4667 318° Northwest 170 196 4,500 -750 Descending Edmonton Center
Sun 10:04:29 AM 53.2167 -113.5167 318° Northwest 150 173 3,600 -750 Descending Edmonton Center
Sun 10:05:29 AM 53.2333 -113.5333 329° Northwest 120 138 3,000 -650 Descending Edmonton Center
Sun 10:06:29 AM 53.2667 -113.6000 310° West 120 138 2,300 -700 Descending Edmonton Center

Login

Don't have an account? Register now (free) for customized features, flight alerts, and more!